createdAt,value
2022-10-23T00:01:44.633Z,99855.50
2022-10-23T00:04:16.027Z,99857.28
2022-10-23T00:06:44.176Z,99850.28
2022-10-23T00:09:13.064Z,99860.59
2022-10-23T00:11:40.309Z,99853.69
2022-10-23T00:14:08.480Z,99867.75
2022-10-23T00:16:35.527Z,99859.22
2022-10-23T00:19:02.863Z,99869.69
2022-10-23T00:21:29.792Z,99862.78
2022-10-23T00:23:56.790Z,99864.72
2022-10-23T00:26:23.741Z,99845.78
2022-10-23T00:28:52.667Z,99853.75
2022-10-23T00:31:21.809Z,99829.09
2022-10-23T00:33:48.779Z,99844.31
2022-10-23T00:36:18.123Z,99838.16
2022-10-23T00:38:46.300Z,99819.94
2022-10-23T00:41:24.326Z,99836.47
2022-10-23T00:44:30.982Z,99842.53
2022-10-23T00:46:59.109Z,99790.47
2022-10-23T00:49:26.253Z,99831.16
2022-10-23T00:51:57.140Z,99838.13
2022-10-23T00:54:27.414Z,99841.31
2022-10-23T00:56:58.427Z,99823.53
2022-10-23T00:59:26.498Z,99826.56
2022-10-23T01:01:53.861Z,99825.03
2022-10-23T01:04:30.467Z,99839.44
2022-10-23T01:07:03.975Z,99816.91
2022-10-23T01:09:45.835Z,99815.97
2022-10-23T01:12:19.451Z,99813.06
2022-10-23T01:15:10.387Z,99861.69
2022-10-23T01:17:51.182Z,99794.50
2022-10-23T01:20:27.485Z,99824.69
2022-10-23T01:23:13.070Z,99801.78
2022-10-23T01:26:19.307Z,99846.53
2022-10-23T01:28:56.863Z,99803.28
2022-10-23T01:31:51.331Z,99783.19
2022-10-23T01:34:23.461Z,99803.66
2022-10-23T01:36:52.693Z,99809.44
2022-10-23T01:39:29.536Z,99797.13
2022-10-23T01:42:04.912Z,99790.16
2022-10-23T01:44:41.507Z,99797.34
2022-10-23T01:47:11.438Z,99781.31
2022-10-23T01:50:03.096Z,99779.19
2022-10-23T01:52:30.565Z,99767.41
2022-10-23T01:55:01.279Z,99776.22
2022-10-23T01:57:34.240Z,99762.09
2022-10-23T02:00:07.253Z,99771.75
2022-10-23T02:02:52.486Z,99789.66
2022-10-23T02:05:24.033Z,99771.13
2022-10-23T02:07:52.517Z,99760.31
2022-10-23T02:10:20.455Z,99756.03
2022-10-23T02:13:17.463Z,99741.25
2022-10-23T02:16:00.759Z,99748.34
2022-10-23T02:18:30.973Z,99754.34
2022-10-23T02:21:18.365Z,99750.34
2022-10-23T02:24:11.804Z,99769.69
2022-10-23T02:26:53.812Z,99739.06
2022-10-23T02:29:30.372Z,99754.00
2022-10-23T02:32:11.009Z,99759.66
2022-10-23T02:34:40.571Z,99757.88
2022-10-23T02:37:09.585Z,99751.09
2022-10-23T02:39:36.643Z,99755.53
2022-10-23T02:42:25.910Z,99753.88
2022-10-23T02:45:09.130Z,99749.47
2022-10-23T02:47:59.842Z,99731.72
2022-10-23T02:50:38.915Z,99764.66
2022-10-23T02:53:11.780Z,99732.31
2022-10-23T02:55:38.660Z,99751.22
2022-10-23T02:58:13.268Z,99730.97
2022-10-23T03:00:50.573Z,99730.59
2022-10-23T03:03:40.655Z,99727.88
2022-10-23T03:06:08.289Z,99749.47
2022-10-23T03:08:52.413Z,99743.56
2022-10-23T03:11:19.602Z,99757.25
2022-10-23T03:13:46.596Z,99757.44
2022-10-23T03:16:13.609Z,99753.03
2022-10-23T03:18:40.547Z,99752.84
2022-10-23T03:21:08.347Z,99753.63
2022-10-23T03:23:35.406Z,99734.09
2022-10-23T03:26:02.796Z,99748.84
2022-10-23T03:28:35.838Z,99723.91
2022-10-23T03:31:03.965Z,99746.56
2022-10-23T03:33:31.827Z,99752.47
2022-10-23T03:36:07.218Z,99733.25
2022-10-23T03:38:35.397Z,99744.22
2022-10-23T03:41:03.704Z,99741.75
2022-10-23T03:43:59.831Z,99729.72
2022-10-23T03:46:26.863Z,99743.47
2022-10-23T03:48:54.848Z,99708.56
2022-10-23T03:51:22.973Z,99746.22
2022-10-23T03:53:50.169Z,99739.09
2022-10-23T03:56:17.226Z,99738.81
2022-10-23T03:58:44.864Z,99729.38
2022-10-23T04:01:13.400Z,99736.19
2022-10-23T04:04:06.669Z,99718.34
2022-10-23T04:06:35.284Z,99742.34
2022-10-23T04:09:02.249Z,99755.75
2022-10-23T04:11:29.494Z,99723.22
2022-10-23T04:14:06.656Z,99730.72
2022-10-23T04:16:37.872Z,99731.47
2022-10-23T04:19:06.172Z,99726.94
2022-10-23T04:21:33.269Z,99730.56
2022-10-23T04:24:01.201Z,99750.78
2022-10-23T04:26:54.199Z,99722.13
2022-10-23T04:29:22.851Z,99723.31
2022-10-23T04:31:49.821Z,99723.81
2022-10-23T04:34:17.954Z,99722.03
2022-10-23T04:36:47.304Z,99731.75
2022-10-23T04:39:14.874Z,99736.66
2022-10-23T04:41:41.858Z,99694.91
2022-10-23T04:44:08.769Z,99711.94
2022-10-23T04:46:38.886Z,99733.88
2022-10-23T04:49:05.950Z,99714.81
2022-10-23T04:51:50.831Z,99703.09
2022-10-23T04:54:39.769Z,99711.84
2022-10-23T04:57:26.919Z,99723.94
2022-10-23T05:00:00.636Z,99714.16
2022-10-23T05:02:29.825Z,99731.59
2022-10-23T05:04:56.821Z,99707.88
2022-10-23T05:07:36.507Z,99700.91
2022-10-23T05:10:13.370Z,99717.88
2022-10-23T05:13:04.292Z,99709.28
2022-10-23T05:15:31.303Z,99723.38
2022-10-23T05:18:13.419Z,99703.97
2022-10-23T05:20:41.081Z,99727.22
2022-10-23T05:23:13.654Z,99696.13
2022-10-23T05:25:48.189Z,99708.56
2022-10-23T05:28:17.662Z,99717.63
2022-10-23T05:30:45.111Z,99727.44
2022-10-23T05:33:12.089Z,99721.44
2022-10-23T05:35:44.249Z,99710.91
2022-10-23T05:38:14.570Z,99697.44
2022-10-23T05:40:42.294Z,99714.09
2022-10-23T05:43:14.457Z,99731.28
2022-10-23T05:45:56.034Z,99723.31
2022-10-23T05:48:41.314Z,99714.75
2022-10-23T05:51:26.215Z,99691.66
2022-10-23T05:54:04.805Z,99682.97
2022-10-23T05:56:38.216Z,99708.66
2022-10-23T05:59:11.045Z,99713.13
2022-10-23T06:01:48.198Z,99700.59
2022-10-23T06:04:20.580Z,99708.84
2022-10-23T06:07:29.125Z,99711.59
2022-10-23T06:10:00.005Z,99707.97
2022-10-23T06:12:27.369Z,99703.09
2022-10-23T06:14:54.418Z,99707.00
2022-10-23T06:17:28.421Z,99697.31
2022-10-23T06:19:55.370Z,99697.94
2022-10-23T06:22:22.420Z,99698.81
2022-10-23T06:24:54.562Z,99678.50
2022-10-23T06:27:25.725Z,99679.50
2022-10-23T06:29:56.124Z,99686.78
2022-10-23T06:32:39.410Z,99687.28
2022-10-23T06:35:34.231Z,99695.50
2022-10-23T06:38:04.307Z,99682.34
2022-10-23T06:40:39.557Z,99673.81
2022-10-23T06:43:15.897Z,99696.72
2022-10-23T06:46:07.139Z,99682.59
2022-10-23T06:48:57.232Z,99659.66
2022-10-23T06:51:29.873Z,99675.66
2022-10-23T06:53:57.570Z,99681.09
2022-10-23T06:56:43.262Z,99653.56
2022-10-23T06:59:39.424Z,99651.28
2022-10-23T07:02:26.334Z,99668.91
2022-10-23T07:04:53.301Z,99655.84
2022-10-23T07:07:21.624Z,99655.28
2022-10-23T07:09:49.736Z,99672.91
2022-10-23T07:12:48.519Z,99654.69
2022-10-23T07:15:51.146Z,99646.06
2022-10-23T07:18:23.304Z,99642.31
2022-10-23T07:21:09.246Z,99638.81
2022-10-23T07:23:38.821Z,99657.72
2022-10-23T07:26:16.201Z,99636.88
2022-10-23T07:29:00.245Z,99654.50
2022-10-23T07:31:28.466Z,99623.97
2022-10-23T07:34:33.612Z,99621.84
2022-10-23T07:37:24.967Z,99627.84
2022-10-23T07:39:51.846Z,99628.47
2022-10-23T07:42:18.900Z,99605.31
2022-10-23T07:44:46.339Z,99620.94
2022-10-23T07:47:13.248Z,99588.88
2022-10-23T07:49:43.665Z,99613.06
2022-10-23T07:52:10.639Z,99605.63
2022-10-23T07:54:57.571Z,99603.91
2022-10-23T07:57:26.047Z,99602.63
2022-10-23T08:00:07.849Z,99596.81
2022-10-23T08:02:40.968Z,99578.75
2022-10-23T08:05:10.337Z,99596.63
2022-10-23T08:07:48.348Z,99607.13
2022-10-23T08:10:16.804Z,99569.28
2022-10-23T08:12:44.752Z,99593.56
2022-10-23T08:15:13.066Z,99598.97
2022-10-23T08:17:51.722Z,99588.78
2022-10-23T08:20:39.281Z,99582.13
2022-10-23T08:23:06.731Z,99591.22
2022-10-23T08:25:33.975Z,99587.41
2022-10-23T08:28:04.218Z,99575.72
2022-10-23T08:30:39.457Z,99577.91
2022-10-23T08:33:07.360Z,99564.00
2022-10-23T08:35:38.664Z,99581.50
2022-10-23T08:38:06.759Z,99596.63
2022-10-23T08:40:44.933Z,99560.84
2022-10-23T08:43:37.606Z,99563.19
2022-10-23T08:46:25.367Z,99538.44
2022-10-23T08:49:21.292Z,99534.38
2022-10-23T08:52:13.304Z,99526.59
2022-10-23T08:54:49.499Z,99579.66
2022-10-23T08:57:18.684Z,99539.38
2022-10-23T08:59:54.689Z,99545.47
2022-10-23T09:02:25.051Z,99546.31
2022-10-23T09:05:16.360Z,99559.50
2022-10-23T09:08:05.370Z,99551.19
2022-10-23T09:11:09.579Z,99584.47
2022-10-23T09:13:50.374Z,99550.22
2022-10-23T09:16:41.776Z,99548.38
2022-10-23T09:19:20.208Z,99526.28
2022-10-23T09:21:49.705Z,99529.63
2022-10-23T09:24:20.083Z,99524.84
2022-10-23T09:26:50.360Z,99520.63
2022-10-23T09:29:29.338Z,99512.44
2022-10-23T09:31:58.878Z,99509.28
2022-10-23T09:34:28.478Z,99518.84
2022-10-23T09:37:04.193Z,99494.84
2022-10-23T09:39:34.069Z,99528.66
2022-10-23T09:42:23.839Z,99501.25
2022-10-23T09:44:53.871Z,99494.88
2022-10-23T09:47:24.685Z,99508.00
2022-10-23T09:49:54.220Z,99485.66
2022-10-23T09:52:33.752Z,99473.63
2022-10-23T09:55:03.121Z,99477.41
2022-10-23T09:57:43.140Z,99467.59
2022-10-23T10:00:19.939Z,99473.31
2022-10-23T10:03:00.094Z,99487.63
2022-10-23T10:06:04.874Z,99483.50
2022-10-23T10:08:48.828Z,99464.66
2022-10-23T10:11:24.763Z,99460.94
2022-10-23T10:14:14.746Z,99451.94
2022-10-23T10:16:54.610Z,99460.88
2022-10-23T10:19:46.036Z,99460.44
2022-10-23T10:22:37.176Z,99461.88
2022-10-23T10:25:25.927Z,99451.38
2022-10-23T10:28:19.704Z,99457.38
2022-10-23T10:31:12.272Z,99432.31
2022-10-23T10:33:52.272Z,99444.00
2022-10-23T10:36:31.179Z,99436.44
2022-10-23T10:39:03.915Z,99444.66
2022-10-23T10:41:58.938Z,99427.00
2022-10-23T10:45:00.959Z,99435.97
2022-10-23T10:47:41.569Z,99422.56
2022-10-23T10:50:22.142Z,99428.50
2022-10-23T10:54:07.744Z,99428.50
2022-10-23T10:56:41.888Z,99418.41
2022-10-23T10:59:29.309Z,99392.50
2022-10-23T11:02:26.088Z,99406.03
2022-10-23T11:05:00.240Z,99397.78
2022-10-23T11:07:37.176Z,99400.00
2022-10-23T11:10:16.023Z,99387.28
2022-10-23T11:12:45.978Z,99381.22
2022-10-23T11:15:20.786Z,99395.88
2022-10-23T11:17:53.441Z,99376.00
2022-10-23T11:20:56.807Z,99362.47
2022-10-23T11:23:45.320Z,99358.34
2022-10-23T11:26:20.270Z,99352.75
2022-10-23T11:29:14.216Z,99371.16
2022-10-23T11:32:02.671Z,99360.66
2022-10-23T11:34:44.336Z,99339.63
2022-10-23T11:37:16.923Z,99374.16
2022-10-23T11:39:58.510Z,99344.84
2022-10-23T11:42:40.595Z,99310.34
2022-10-23T11:45:37.367Z,99336.25
2022-10-23T11:48:39.514Z,99343.41
2022-10-23T11:51:26.183Z,99313.72
2022-10-23T11:53:53.161Z,99331.00
2022-10-23T11:56:19.915Z,99334.00
2022-10-23T11:58:52.258Z,99314.44
2022-10-23T12:01:34.874Z,99322.75
2022-10-23T12:04:14.197Z,99319.75
2022-10-23T12:07:36.928Z,99313.75
2022-10-23T12:10:23.029Z,99317.84
2022-10-23T12:13:03.417Z,99326.88
2022-10-23T12:15:33.003Z,99318.97
2022-10-23T12:18:27.607Z,99300.97
2022-10-23T12:20:58.675Z,99317.09
2022-10-23T12:23:50.126Z,99301.69
2022-10-23T12:26:16.989Z,99307.72
2022-10-23T12:29:03.980Z,99300.59
2022-10-23T12:31:33.741Z,99309.97
2022-10-23T12:34:22.851Z,99307.34
2022-10-23T12:37:11.527Z,99307.69
2022-10-23T12:39:38.694Z,99272.44
2022-10-23T12:42:17.433Z,99289.72
2022-10-23T12:44:44.456Z,99293.06
2022-10-23T12:47:18.181Z,99285.19
2022-10-23T12:49:50.602Z,99287.81
2022-10-23T12:52:19.903Z,99290.09
2022-10-23T12:55:14.626Z,99270.94
2022-10-23T12:57:42.568Z,99280.72
2022-10-23T13:00:11.183Z,99250.28
2022-10-23T13:02:38.237Z,99273.19
2022-10-23T13:05:11.695Z,99272.06
2022-10-23T13:07:44.356Z,99249.19
2022-10-23T13:10:16.304Z,99255.94
2022-10-23T13:13:04.009Z,99249.53
2022-10-23T13:15:45.586Z,99250.69
2022-10-23T13:18:14.697Z,99244.66
2022-10-23T13:23:35.230Z,99235.66
2022-10-23T13:26:06.849Z,99233.41
2022-10-23T13:28:44.650Z,99237.91
2022-10-23T13:31:14.581Z,99228.16
2022-10-23T13:34:04.447Z,99238.28
2022-10-23T13:36:36.335Z,99208.25
2022-10-23T13:39:14.756Z,99225.53
2022-10-23T13:41:44.610Z,99230.78
2022-10-23T13:44:14.143Z,99221.41
2022-10-23T13:46:41.597Z,99215.78
2022-10-23T13:49:08.615Z,99207.88
2022-10-23T13:51:53.880Z,99219.53
2022-10-23T13:56:56.535Z,99204.91
2022-10-23T13:59:46.982Z,99196.63
2022-10-23T14:02:20.723Z,99218.38
2022-10-23T14:04:48.914Z,99210.91
2022-10-23T14:07:16.126Z,99196.63
2022-10-23T14:09:51.414Z,99211.66
2022-10-23T14:12:18.360Z,99210.16
2022-10-23T14:14:45.227Z,99206.75
2022-10-23T14:17:15.162Z,99185.38
2022-10-23T14:19:42.060Z,99196.25
2022-10-23T14:22:08.948Z,99177.88
2022-10-23T14:24:36.118Z,99207.50
2022-10-23T14:27:03.223Z,99211.63
2022-10-23T14:29:30.335Z,99196.63
2022-10-23T14:31:57.231Z,99186.50
2022-10-23T14:34:24.166Z,99181.25
2022-10-23T14:37:03.866Z,99198.16
2022-10-23T14:39:34.786Z,99191.38
2022-10-23T14:42:01.648Z,99184.63
2022-10-23T14:44:28.596Z,99188.00
2022-10-23T14:46:55.693Z,99161.38
2022-10-23T14:49:22.617Z,99163.63
2022-10-23T14:51:49.675Z,99183.88
2022-10-23T14:54:16.774Z,99174.50
2022-10-23T14:56:44.694Z,99179.38
2022-10-23T14:59:11.638Z,99165.47
2022-10-23T15:01:43.877Z,99171.88
2022-10-23T15:04:12.841Z,99196.63
2022-10-23T15:06:39.722Z,99169.63
2022-10-23T15:09:06.805Z,99168.09
2022-10-23T15:11:33.957Z,99167.00
2022-10-23T15:14:01.602Z,99160.63
2022-10-23T15:16:31.673Z,99170.38
2022-10-23T15:18:59.815Z,99174.13
2022-10-23T15:21:27.167Z,99164.72
2022-10-23T15:24:06.160Z,99157.97
2022-10-23T15:26:43.083Z,99149.00
2022-10-23T15:29:17.299Z,99154.59
2022-10-23T15:32:09.698Z,99162.88
2022-10-23T15:34:43.907Z,99158.38
2022-10-23T15:37:16.513Z,99153.84
2022-10-23T15:39:52.119Z,99132.84
2022-10-23T15:42:28.213Z,99151.22
2022-10-23T15:45:34.777Z,99147.06
2022-10-23T15:48:05.325Z,99150.84
2022-10-23T15:54:20.401Z,99154.97
2022-10-23T15:59:54.554Z,99142.59
2022-10-23T16:02:48.232Z,99153.09
2022-10-23T16:05:18.018Z,99143.72
2022-10-23T16:07:53.458Z,99134.72
2022-10-23T16:10:50.108Z,99138.44
2022-10-23T16:13:21.942Z,99123.81
2022-10-23T16:15:50.558Z,99126.44
2022-10-23T16:18:18.562Z,99114.41
2022-10-23T16:20:50.522Z,99116.31
2022-10-23T16:23:23.378Z,99122.69
2022-10-23T16:25:50.321Z,99095.28
2022-10-23T16:28:39.492Z,99107.63
2022-10-23T16:31:20.198Z,99103.91
2022-10-23T16:33:50.720Z,99103.50
2022-10-23T16:36:18.816Z,99108.38
2022-10-23T16:39:24.215Z,99096.00
2022-10-23T16:42:09.775Z,99095.19
2022-10-23T16:44:57.082Z,99101.19
2022-10-23T16:47:24.340Z,99098.22
2022-10-23T16:49:56.819Z,99087.69
2022-10-23T16:53:03.874Z,99095.19
2022-10-23T16:55:22.545Z,99106.41
2022-10-23T16:57:51.829Z,99094.41
2022-10-23T17:00:22.660Z,99085.38
2022-10-23T17:02:54.123Z,99098.50
2022-10-23T17:05:25.535Z,99098.53
2022-10-23T17:07:55.805Z,99084.56
2022-10-23T17:10:32.294Z,99073.31
2022-10-23T17:13:03.816Z,99062.09
2022-10-23T17:15:30.748Z,99066.63
2022-10-23T17:17:59.994Z,99078.97
2022-10-23T17:20:29.287Z,99077.06
2022-10-23T17:22:56.569Z,99093.66
2022-10-23T17:25:23.571Z,99069.66
2022-10-23T17:27:50.604Z,99078.28
2022-10-23T17:30:18.187Z,99076.00
2022-10-23T17:32:47.503Z,99065.53
2022-10-23T17:35:18.511Z,99059.88
2022-10-23T17:37:45.775Z,99040.69
2022-10-23T17:40:14.963Z,99062.50
2022-10-23T17:42:42.424Z,99070.38
2022-10-23T17:45:10.753Z,99059.41
2022-10-23T17:47:38.193Z,99079.69
2022-10-23T17:50:06.079Z,99043.63
2022-10-23T17:52:38.504Z,99067.72
2022-10-23T17:55:10.214Z,99063.66
2022-10-23T17:57:37.437Z,99046.38
2022-10-23T18:00:06.005Z,99056.38
2022-10-23T18:02:39.641Z,99037.97
2022-10-23T18:05:07.067Z,99041.75
2022-10-23T18:07:33.988Z,99039.50
2022-10-23T18:10:00.972Z,99035.38
2022-10-23T18:12:30.954Z,99037.66
2022-10-23T18:14:58.038Z,99024.13
2022-10-23T18:17:26.468Z,99026.84
2022-10-23T18:19:59.560Z,99008.03
2022-10-23T18:22:29.961Z,99015.53
2022-10-23T18:24:58.680Z,99015.59
2022-10-23T18:27:30.356Z,99010.66
2022-10-23T18:29:58.708Z,99009.91
2022-10-23T18:32:26.943Z,99020.84
2022-10-23T18:34:54.325Z,99041.47
2022-10-23T18:37:28.883Z,99004.28
2022-10-23T18:40:02.534Z,99006.56
2022-10-23T18:42:29.552Z,99010.34
2022-10-23T18:44:59.763Z,98999.09
2022-10-23T18:47:30.918Z,99012.22
2022-10-23T18:50:01.433Z,98988.91
2022-10-23T18:52:29.159Z,98990.81
2022-10-23T18:54:59.443Z,99014.84
2022-10-23T18:57:26.571Z,98993.44
2022-10-23T18:59:56.487Z,99008.03
2022-10-23T19:02:38.000Z,98989.31
2022-10-23T19:05:07.213Z,98997.53
2022-10-23T19:07:35.250Z,98972.78
2022-10-23T19:10:02.434Z,98982.50
2022-10-23T19:12:29.324Z,98973.53
2022-10-23T19:14:56.250Z,98983.22
2022-10-23T19:17:29.087Z,98974.69
2022-10-23T19:20:01.840Z,98973.47
2022-10-23T19:22:35.251Z,98996.03
2022-10-23T19:25:08.673Z,98976.50
2022-10-23T19:27:43.612Z,98984.31
2022-10-23T19:30:12.071Z,98988.91
2022-10-23T19:32:44.147Z,98971.66
2022-10-23T19:35:13.882Z,98956.16
2022-10-23T19:38:07.035Z,98956.16
2022-10-23T19:41:00.021Z,98968.22
2022-10-23T19:43:27.458Z,98966.06
2022-10-23T19:45:54.237Z,98962.25
2022-10-23T19:48:21.269Z,98969.78
2022-10-23T19:50:50.293Z,98965.25
2022-10-23T19:53:17.204Z,98945.50
2022-10-23T19:56:33.037Z,98935.19
2022-10-23T19:59:00.178Z,98963.75
2022-10-23T20:01:27.422Z,98937.56
2022-10-23T20:04:13.114Z,98935.25
2022-10-23T20:06:40.456Z,98935.31
2022-10-23T20:09:08.771Z,98923.25
2022-10-23T20:11:38.869Z,98936.75
2022-10-23T20:14:06.781Z,98934.09
2022-10-23T20:16:36.887Z,98923.66
2022-10-23T20:19:07.331Z,98920.91
2022-10-23T20:21:44.008Z,98928.06
2022-10-23T20:24:13.951Z,98911.66
2022-10-23T20:26:43.051Z,98907.53
2022-10-23T20:29:10.791Z,98908.25
2022-10-23T20:31:37.935Z,98921.03
2022-10-23T20:34:05.680Z,98896.97
2022-10-23T20:36:43.742Z,98883.44
2022-10-23T20:39:17.623Z,98910.84
2022-10-23T20:41:44.620Z,98894.03
2022-10-23T20:44:14.323Z,98890.19
2022-10-23T20:46:42.059Z,98868.50
2022-10-23T20:49:09.650Z,98864.41
2022-10-23T20:51:36.718Z,98876.78
2022-10-23T20:54:04.569Z,98866.28
2022-10-23T20:56:34.144Z,98882.69
2022-10-23T20:59:11.033Z,98876.69
2022-10-23T21:01:49.655Z,98887.50
2022-10-23T21:04:19.748Z,98875.09
2022-10-23T21:07:08.971Z,98872.81
2022-10-23T21:09:36.668Z,98842.88
2022-10-23T21:12:03.735Z,98851.91
2022-10-23T21:14:30.707Z,98856.06
2022-10-23T21:16:57.556Z,98854.88
2022-10-23T21:19:24.506Z,98839.50
2022-10-23T21:21:59.952Z,98858.31
2022-10-23T21:24:26.933Z,98851.91
2022-10-23T21:26:53.760Z,98845.19
2022-10-23T21:29:20.944Z,98805.44
2022-10-23T21:31:55.642Z,98845.06
2022-10-23T21:34:24.013Z,98852.56
2022-10-23T21:37:11.932Z,98828.56
2022-10-23T21:39:38.370Z,98821.44
2022-10-23T21:42:05.273Z,98824.00
2022-10-23T21:44:32.140Z,98818.03
2022-10-23T21:46:58.937Z,98829.59
2022-10-23T21:49:25.944Z,98822.47
2022-10-23T21:51:52.762Z,98803.03
2022-10-23T21:54:19.631Z,98802.66
2022-10-23T21:56:48.770Z,98801.22
2022-10-23T21:59:42.021Z,98809.84
2022-10-23T22:02:09.036Z,98799.31
2022-10-23T22:04:36.449Z,98808.00
2022-10-23T22:07:04.536Z,98791.53
2022-10-23T22:09:32.790Z,98801.63
2022-10-23T22:12:00.852Z,98805.19
2022-10-23T22:14:28.203Z,98787.63
2022-10-23T22:16:55.154Z,98783.53
2022-10-23T22:19:22.951Z,98794.09
2022-10-23T22:21:50.995Z,98780.53
2022-10-23T22:24:18.630Z,98774.88
2022-10-23T22:26:52.137Z,98771.56
2022-10-23T22:29:21.848Z,98758.34
2022-10-23T22:31:50.101Z,98779.66
2022-10-23T22:37:12.102Z,98758.56
2022-10-23T22:39:39.475Z,98756.06
2022-10-23T22:42:11.794Z,98755.69
2022-10-23T22:44:38.800Z,98723.38
2022-10-23T22:47:05.915Z,98740.03
2022-10-23T22:49:33.029Z,98758.72
2022-10-23T22:52:00.152Z,98735.84
2022-10-23T22:54:27.595Z,98733.19
2022-10-23T22:56:54.502Z,98715.25
2022-10-23T22:59:21.373Z,98714.47
2022-10-23T23:01:51.392Z,98724.38
2022-10-23T23:04:37.418Z,98709.72
2022-10-23T23:07:11.288Z,98723.88
2022-10-23T23:09:43.455Z,98711.88
2022-10-23T23:12:39.671Z,98712.72
2022-10-23T23:15:07.351Z,98701.06
2022-10-23T23:17:34.126Z,98693.19
2022-10-23T23:20:01.103Z,98709.59
2022-10-23T23:22:28.016Z,98704.88
2022-10-23T23:24:55.066Z,98677.94
2022-10-23T23:27:21.931Z,98692.97
2022-10-23T23:29:49.182Z,98704.84
2022-10-23T23:32:16.026Z,98673.41
2022-10-23T23:34:43.014Z,98690.97
2022-10-23T23:37:21.734Z,98669.75
2022-10-23T23:40:06.928Z,98683.06
2022-10-23T23:42:33.765Z,98664.75
2022-10-23T23:45:13.610Z,98665.88
2022-10-23T23:47:41.845Z,98668.78
2022-10-23T23:50:11.161Z,98657.59
2022-10-23T23:52:41.345Z,98661.75
2022-10-23T23:55:08.570Z,98656.09
2022-10-23T23:57:35.798Z,98645.19
